Time;durP1;ratioP1;P1;durP2;ratioP2;P2;SDS_P1;SDS_P2;PMS_P1;PMS_P2;Temp;Humidity;BMP_temperature;BMP_pressure;BME280_temperature;BME280_humidity;BME280_pressure;Samples;Min_cycle;Max_cycle;Signal;HPM_P1;HPM_P2
2022/01/15 00:00:44;;;;;;;16.90;11.68;;;5.60;96.70;;;;;;4920317;29;20581;-70
2022/01/15 00:03:15;;;;;;;21.17;12.68;;;5.60;96.70;;;;;;4917378;29;20400;-71
2022/01/15 00:05:45;;;;;;;20.73;11.80;;;5.60;96.70;;;;;;4912869;29;20043;-70
2022/01/15 00:08:13;;;;;;;18.05;11.65;;;5.50;96.70;;;;;;4896899;29;20564;-71
2022/01/15 00:10:41;;;;;;;19.77;12.45;;;5.30;96.70;;;;;;4889169;29;20050;-71
2022/01/15 00:13:18;;;;;;;22.58;14.73;;;5.30;96.70;;;;;;4916788;29;20123;-70
2022/01/15 00:15:51;;;;;;;22.88;14.23;;;5.30;96.70;;;;;;4899625;29;20047;-70
2022/01/15 00:18:29;;;;;;;24.55;14.30;;;5.30;96.70;;;;;;4918943;29;20155;-70
2022/01/15 00:20:58;;;;;;;21.73;13.48;;;5.30;96.70;;;;;;4914454;29;20051;-71
2022/01/15 00:23:26;;;;;;;22.50;12.93;;;5.20;96.70;;;;;;4912432;29;20044;-70
2022/01/15 00:25:54;;;;;;;25.95;13.93;;;5.20;96.70;;;;;;4897432;29;20554;-70
2022/01/15 00:28:22;;;;;;;20.38;11.73;;;5.20;96.70;;;;;;4901338;29;20067;-71
2022/01/15 00:30:50;;;;;;;22.77;13.27;;;5.30;96.70;;;;;;4898872;29;20055;-70
2022/01/15 00:33:18;;;;;;;16.48;11.55;;;5.40;96.70;;;;;;4918079;29;20126;-71
2022/01/15 00:35:45;;;;;;;17.38;11.27;;;5.30;96.70;;;;;;4897501;29;20099;-71
2022/01/15 00:38:15;;;;;;;17.40;10.70;;;5.30;96.70;;;;;;4916624;29;20091;-71
2022/01/15 00:40:43;;;;;;;17.20;10.85;;;5.30;96.70;;;;;;4882440;29;20481;-71
2022/01/15 00:43:11;;;;;;;15.90;10.38;;;5.30;96.70;;;;;;4898315;29;20048;-71
2022/01/15 00:45:39;;;;;;;16.35;10.38;;;5.20;96.70;;;;;;4897608;29;20055;-71
2022/01/15 00:48:08;;;;;;;13.93;9.98;;;5.30;96.70;;;;;;4917770;29;20039;-70
2022/01/15 00:50:36;;;;;;;16.27;9.90;;;5.30;96.70;;;;;;4883861;29;20059;-71
2022/01/15 00:53:04;;;;;;;16.98;11.30;;;5.30;96.70;;;;;;4913439;29;20058;-71
2022/01/15 00:55:33;;;;;;;16.85;10.73;;;5.30;96.70;;;;;;4916624;29;20043;-71
2022/01/15 00:58:01;;;;;;;15.75;10.48;;;5.30;96.70;;;;;;4913511;29;20127;-71
2022/01/15 01:00:29;;;;;;;16.88;10.65;;;5.30;96.70;;;;;;4901278;29;20458;-70
2022/01/15 01:02:58;;;;;;;19.42;10.40;;;5.30;96.70;;;;;;4895302;29;20051;-71
2022/01/15 01:05:26;;;;;;;17.85;10.95;;;5.20;96.70;;;;;;4917885;29;20829;-71
2022/01/15 01:07:54;;;;;;;14.93;9.55;;;5.30;96.70;;;;;;4912830;29;20040;-71
2022/01/15 01:23:43;;;;;;;15.40;9.95;;;5.10;96.70;;;;;;4916885;29;20296;-70
2022/01/15 01:26:24;;;;;;;18.92;10.82;;;5.10;96.70;;;;;;4899316;29;20434;-70
2022/01/15 01:31:54;;;;;;;19.00;11.98;;;4.90;96.70;;;;;;4911643;29;20291;-68
2022/01/15 01:34:26;;;;;;;14.65;10.20;;;5.00;96.70;;;;;;4902016;29;20051;-70
2022/01/15 01:37:02;;;;;;;17.23;10.55;;;5.10;96.70;;;;;;4918359;29;20405;-70
2022/01/15 01:39:53;;;;;;;;;;;5.00;96.70;;;;;;4919012;29;20055;-70
2022/01/15 01:45:04;;;;;;;13.70;9.45;;;4.90;96.70;;;;;;4917608;29;20048;-70
2022/01/15 01:47:41;;;;;;;15.73;10.13;;;4.70;96.70;;;;;;4918630;29;20051;-70
2022/01/15 01:50:12;;;;;;;16.40;9.45;;;4.70;96.70;;;;;;4898237;29;20099;-70
2022/01/15 01:52:41;;;;;;;14.90;9.82;;;4.60;96.70;;;;;;4897409;29;20490;-70
2022/01/15 01:55:10;;;;;;;17.08;10.18;;;4.70;96.70;;;;;;4900503;29;20107;-71
2022/01/15 01:57:39;;;;;;;17.73;10.27;;;4.70;96.70;;;;;;4893798;29;20056;-72
2022/01/15 02:00:12;;;;;;;14.70;10.10;;;4.70;96.70;;;;;;4917188;29;20088;-72
2022/01/15 02:02:51;;;;;;;17.42;10.27;;;4.70;96.70;;;;;;4920170;29;20182;-73
2022/01/15 02:05:21;;;;;;;15.30;10.15;;;4.60;96.70;;;;;;4900052;29;20051;-73
2022/01/15 02:07:50;;;;;;;17.60;9.93;;;4.50;96.70;;;;;;4900817;29;20130;-72
2022/01/15 02:10:20;;;;;;;12.57;9.18;;;4.50;96.70;;;;;;4893362;29;20141;-72
2022/01/15 02:12:50;;;;;;;12.73;8.25;;;4.40;96.70;;;;;;4903742;29;20142;-72
2022/01/15 02:15:21;;;;;;;10.15;7.47;;;4.40;96.70;;;;;;4899546;29;20051;-73
2022/01/15 02:17:50;;;;;;;11.20;6.47;;;4.40;96.70;;;;;;4918162;29;20052;-73
2022/01/15 02:20:34;;;;;;;13.15;6.47;;;4.40;96.70;;;;;;4918886;29;20040;-73
2022/01/15 02:25:53;;;;;;;11.70;6.68;;;4.50;96.70;;;;;;4917195;29;20130;-72
2022/01/15 02:28:23;;;;;;;10.00;6.15;;;4.60;96.70;;;;;;4884478;29;20539;-73
2022/01/15 02:30:54;;;;;;;11.25;5.82;;;4.60;96.70;;;;;;4901529;29;20150;-72
2022/01/15 02:33:23;;;;;;;9.65;5.75;;;4.50;96.70;;;;;;4921101;29;20510;-72
2022/01/15 02:35:53;;;;;;;7.93;5.40;;;4.40;96.70;;;;;;4918626;29;20044;-73
2022/01/15 02:38:22;;;;;;;8.40;5.60;;;4.40;96.70;;;;;;4917190;29;20079;-73
2022/01/15 02:40:51;;;;;;;9.70;6.05;;;4.40;96.70;;;;;;4920937;29;20106;-72
2022/01/15 02:43:27;;;;;;;10.13;6.20;;;4.40;96.70;;;;;;4917448;29;20139;-72
2022/01/15 02:45:56;;;;;;;10.65;6.60;;;4.50;96.70;;;;;;4918623;29;20048;-72
2022/01/15 02:48:27;;;;;;;10.60;6.10;;;4.50;96.70;;;;;;4895700;29;20958;-72
2022/01/15 02:50:57;;;;;;;11.55;7.03;;;4.50;96.70;;;;;;4917549;29;20036;-73
2022/01/15 02:53:25;;;;;;;16.23;7.47;;;4.40;96.70;;;;;;4900200;29;20048;-72
2022/01/15 02:55:54;;;;;;;11.95;6.95;;;4.50;96.70;;;;;;4902386;29;20040;-72
2022/01/15 02:58:24;;;;;;;11.18;7.43;;;4.50;96.70;;;;;;4906995;29;20054;-73
2022/01/15 03:00:53;;;;;;;13.02;7.70;;;4.50;96.70;;;;;;4903274;29;20040;-73
2022/01/15 03:03:21;;;;;;;11.02;7.00;;;4.50;96.70;;;;;;4901836;29;20626;-72
2022/01/15 03:05:49;;;;;;;10.95;7.13;;;4.50;96.70;;;;;;4904895;29;20047;-72
2022/01/15 03:08:19;;;;;;;11.98;7.40;;;4.50;96.70;;;;;;4899102;29;20043;-72
2022/01/15 03:10:47;;;;;;;9.38;6.95;;;4.30;96.70;;;;;;4920028;29;20458;-72
2022/01/15 03:13:16;;;;;;;13.65;7.20;;;4.30;96.70;;;;;;4918710;29;20047;-72
2022/01/15 03:15:44;;;;;;;12.15;7.45;;;4.30;96.70;;;;;;4920061;29;20128;-72
2022/01/15 03:18:12;;;;;;;11.35;6.50;;;4.40;96.70;;;;;;4919258;29;20035;-73
2022/01/15 03:20:40;;;;;;;12.95;7.13;;;4.50;96.70;;;;;;4923246;29;20048;-72
2022/01/15 03:23:08;;;;;;;11.38;8.02;;;4.40;96.70;;;;;;4918684;29;20064;-73
2022/01/15 03:25:37;;;;;;;11.75;7.18;;;4.20;96.70;;;;;;4903852;29;20071;-72
2022/01/15 03:28:05;;;;;;;11.25;6.72;;;4.30;96.70;;;;;;4930780;29;20485;-72
2022/01/15 03:30:33;;;;;;;10.70;6.55;;;4.30;96.70;;;;;;4895596;29;20139;-72
2022/01/15 03:33:02;;;;;;;11.50;6.88;;;4.20;96.70;;;;;;4915399;29;20459;-72
2022/01/15 03:35:30;;;;;;;11.70;7.53;;;4.30;96.70;;;;;;4919512;29;20155;-72
2022/01/15 03:37:58;;;;;;;12.05;6.95;;;4.30;96.70;;;;;;4902655;29;20048;-72
2022/01/15 03:40:26;;;;;;;10.07;7.15;;;4.20;96.70;;;;;;4906464;29;20423;-72
2022/01/15 03:42:56;;;;;;;11.27;6.78;;;4.30;96.70;;;;;;4924023;29;20482;-72
2022/01/15 03:45:25;;;;;;;11.75;6.68;;;4.30;96.70;;;;;;4906037;29;20488;-72
2022/01/15 03:47:53;;;;;;;10.73;6.72;;;4.30;96.70;;;;;;4919873;29;20047;-72
2022/01/15 03:50:21;;;;;;;11.18;6.80;;;4.30;96.70;;;;;;4901454;29;20532;-72
2022/01/15 03:52:49;;;;;;;10.32;6.55;;;4.40;96.70;;;;;;4913262;29;20058;-72
2022/01/15 03:55:18;;;;;;;9.15;6.05;;;4.30;96.70;;;;;;4913816;29;20915;-72
2022/01/15 03:57:47;;;;;;;9.15;5.75;;;4.20;96.70;;;;;;4901962;29;20051;-72
2022/01/15 04:00:19;;;;;;;9.68;5.65;;;4.20;96.70;;;;;;4932622;28;20050;-72
2022/01/15 04:02:48;;;;;;;10.95;6.07;;;4.20;96.70;;;;;;4916693;29;20470;-72
2022/01/15 04:05:16;;;;;;;9.55;6.10;;;4.10;96.70;;;;;;4898928;29;20112;-72
2022/01/15 04:07:44;;;;;;;11.00;6.53;;;4.20;96.70;;;;;;4888592;29;20613;-72
2022/01/15 04:10:15;;;;;;;9.88;6.40;;;4.30;96.70;;;;;;4901085;29;20514;-72
2022/01/15 04:12:44;;;;;;;11.05;6.68;;;4.20;96.70;;;;;;4903012;29;20447;-72
2022/01/15 04:15:13;;;;;;;12.70;6.15;;;4.10;96.70;;;;;;4910380;29;20503;-72
2022/01/15 04:17:45;;;;;;;8.70;6.20;;;4.10;96.70;;;;;;4915580;29;20638;-72
2022/01/15 04:20:16;;;;;;;11.18;6.28;;;4.10;96.70;;;;;;4914114;29;20421;-73
2022/01/15 04:22:44;;;;;;;9.63;6.15;;;4.00;96.70;;;;;;4900986;29;20067;-73
2022/01/15 04:25:13;;;;;;;10.43;6.38;;;3.90;96.70;;;;;;4918448;29;20142;-72
2022/01/15 04:27:43;;;;;;;10.88;5.90;;;3.90;96.70;;;;;;4916892;29;20048;-73
2022/01/15 04:30:12;;;;;;;8.40;5.72;;;3.90;96.70;;;;;;4919120;29;20503;-72
2022/01/15 04:32:42;;;;;;;10.43;6.18;;;3.90;96.70;;;;;;4904370;29;20135;-72
2022/01/15 04:35:10;;;;;;;11.15;6.30;;;3.80;96.70;;;;;;4915731;29;20332;-72
2022/01/15 04:37:52;;;;;;;11.10;6.00;;;3.90;96.70;;;;;;4899590;29;20397;-72
2022/01/15 04:40:20;;;;;;;9.02;6.25;;;3.90;96.70;;;;;;4920733;29;20043;-73
2022/01/15 04:42:48;;;;;;;10.18;5.95;;;4.00;96.70;;;;;;4915626;29;20351;-72
2022/01/15 04:45:16;;;;;;;11.43;6.32;;;4.00;96.70;;;;;;4916102;29;20162;-73
2022/01/15 04:47:46;;;;;;;9.35;6.47;;;3.90;96.70;;;;;;4905986;29;20520;-72
2022/01/15 04:50:17;;;;;;;10.30;5.40;;;4.00;96.70;;;;;;4916007;29;20238;-72
2022/01/15 04:52:45;;;;;;;11.73;6.25;;;4.00;96.70;;;;;;4912560;29;20040;-72
2022/01/15 04:55:14;;;;;;;10.20;6.45;;;4.00;96.70;;;;;;4898603;29;20044;-73
2022/01/15 04:57:42;;;;;;;12.57;7.05;;;4.00;96.70;;;;;;4902202;29;20103;-72
2022/01/15 05:00:13;;;;;;;9.27;6.25;;;4.00;96.70;;;;;;4898998;29;20131;-72
2022/01/15 05:02:41;;;;;;;9.15;6.22;;;4.00;96.70;;;;;;4916009;29;20394;-72
2022/01/15 05:05:13;;;;;;;10.07;6.65;;;4.00;96.70;;;;;;4912703;29;20044;-72
2022/01/15 05:07:42;;;;;;;10.63;6.40;;;4.00;96.70;;;;;;4920834;29;20090;-72
2022/01/15 05:10:13;;;;;;;11.65;7.25;;;4.00;96.70;;;;;;4917893;29;20122;-72
2022/01/15 05:12:46;;;;;;;10.32;6.65;;;3.90;96.70;;;;;;4897951;29;20054;-73
2022/01/15 05:15:16;;;;;;;14.23;6.80;;;3.90;96.70;;;;;;4935333;28;20048;-72
2022/01/15 05:17:44;;;;;;;11.73;7.20;;;3.90;96.70;;;;;;4919571;29;20486;-72
2022/01/15 05:20:20;;;;;;;12.00;6.68;;;3.90;96.70;;;;;;4902321;29;20075;-73
2022/01/15 05:22:50;;;;;;;9.98;6.50;;;3.90;96.70;;;;;;4898646;29;20640;-72
2022/01/15 05:25:18;;;;;;;10.73;6.75;;;3.90;96.70;;;;;;4920985;29;20076;-72
2022/01/15 05:27:47;;;;;;;12.60;6.07;;;3.80;96.70;;;;;;4925297;29;20059;-73
2022/01/15 05:30:15;;;;;;;8.20;6.40;;;3.70;96.70;;;;;;4902796;29;20105;-73
2022/01/15 05:32:43;;;;;;;8.45;5.78;;;3.90;96.70;;;;;;4918811;29;20039;-72
2022/01/15 05:35:13;;;;;;;9.57;5.45;;;3.90;96.70;;;;;;4899756;29;20641;-72
2022/01/15 05:37:41;;;;;;;11.68;6.05;;;4.00;96.70;;;;;;4903412;29;20036;-72
2022/01/15 05:40:11;;;;;;;9.25;5.55;;;4.00;96.70;;;;;;4915574;29;20414;-73
2022/01/15 05:42:39;;;;;;;9.88;5.68;;;3.90;96.70;;;;;;4916508;29;20041;-69
2022/01/15 05:45:08;;;;;;;11.07;6.32;;;3.80;96.70;;;;;;4918425;29;20050;-71
2022/01/15 05:47:36;;;;;;;9.57;5.68;;;3.70;96.70;;;;;;4891466;29;20046;-71
2022/01/15 05:50:06;;;;;;;10.23;6.05;;;3.70;96.70;;;;;;4915781;29;20560;-70
2022/01/15 05:52:36;;;;;;;7.72;5.30;;;3.70;96.70;;;;;;4921193;29;20044;-70
2022/01/15 05:55:05;;;;;;;9.57;5.80;;;3.70;96.70;;;;;;4900313;29;20582;-70
2022/01/15 05:57:34;;;;;;;10.23;5.55;;;3.70;96.70;;;;;;4901257;29;20048;-69
2022/01/15 06:00:03;;;;;;;9.43;6.00;;;3.80;96.70;;;;;;4917305;29;20043;-70
2022/01/15 06:02:40;;;;;;;9.63;6.13;;;3.70;96.70;;;;;;4914316;29;20059;-70
2022/01/15 06:05:09;;;;;;;9.15;6.00;;;3.60;96.70;;;;;;4898779;29;20051;-70
2022/01/15 06:07:39;;;;;;;9.68;6.07;;;3.70;96.70;;;;;;4904326;29;20047;-70
2022/01/15 06:10:08;;;;;;;8.70;5.78;;;3.70;96.70;;;;;;4892692;29;20055;-70
2022/01/15 06:12:42;;;;;;;9.40;5.57;;;3.60;96.70;;;;;;4920942;29;20106;-70
2022/01/15 06:15:12;;;;;;;8.70;5.88;;;3.60;96.70;;;;;;4921144;29;20044;-71
2022/01/15 06:17:41;;;;;;;9.90;5.72;;;3.60;96.70;;;;;;4916827;29;20582;-70
2022/01/15 06:20:11;;;;;;;10.00;6.25;;;3.60;96.70;;;;;;4913693;29;20151;-70
2022/01/15 06:22:40;;;;;;;12.10;6.25;;;3.70;96.70;;;;;;4919571;29;20057;-70
2022/01/15 06:25:09;;;;;;;11.27;6.55;;;3.80;96.70;;;;;;4901503;29;20356;-70
2022/01/15 06:27:38;;;;;;;13.18;6.28;;;3.70;96.70;;;;;;4919114;29;20048;-70
2022/01/15 06:30:07;;;;;;;11.93;6.63;;;3.60;96.70;;;;;;4913556;29;20128;-71
2022/01/15 06:32:38;;;;;;;10.07;6.20;;;3.50;96.70;;;;;;4905064;29;20604;-70
2022/01/15 06:35:08;;;;;;;10.38;6.70;;;3.50;96.70;;;;;;4901329;29;20043;-71
2022/01/15 06:37:36;;;;;;;10.95;6.40;;;3.50;96.70;;;;;;4901853;29;20051;-70
2022/01/15 06:40:07;;;;;;;10.10;5.80;;;3.50;96.70;;;;;;4903508;29;20044;-70
2022/01/15 06:42:36;;;;;;;9.82;5.72;;;3.50;96.70;;;;;;4915338;29;20589;-70
2022/01/15 06:45:05;;;;;;;9.43;6.28;;;3.60;96.70;;;;;;4921542;29;20040;-70
2022/01/15 06:47:33;;;;;;;8.57;5.57;;;3.60;96.70;;;;;;4898628;29;20127;-70
2022/01/15 06:50:04;;;;;;;19.92;9.40;;;3.60;96.70;;;;;;4916904;29;20059;-70
2022/01/15 06:52:34;;;;;;;26.13;15.18;;;3.60;96.70;;;;;;4934778;29;20541;-71
2022/01/15 06:55:02;;;;;;;28.88;16.23;;;3.60;96.70;;;;;;4919564;29;20055;-70
2022/01/15 06:57:32;;;;;;;21.08;12.50;;;3.60;96.70;;;;;;4905051;29;20051;-72
2022/01/15 07:00:01;;;;;;;17.95;11.43;;;3.60;96.70;;;;;;4900084;29;20122;-70
2022/01/15 07:02:30;;;;;;;16.90;11.18;;;3.60;96.70;;;;;;4902456;29;20078;-71
2022/01/15 07:04:58;;;;;;;15.27;9.43;;;3.60;96.70;;;;;;4885939;29;20043;-71
2022/01/15 07:07:26;;;;;;;12.20;8.30;;;3.60;96.70;;;;;;4916538;29;20040;-71
2022/01/15 07:09:54;;;;;;;11.63;7.95;;;3.60;96.70;;;;;;4902693;29;20047;-70
2022/01/15 07:12:23;;;;;;;10.65;7.25;;;3.60;96.70;;;;;;4917000;29;20047;-81
2022/01/15 07:14:52;;;;;;;9.32;6.65;;;3.60;96.70;;;;;;4901621;29;20043;-71
2022/01/15 07:17:21;;;;;;;11.27;6.55;;;3.60;96.70;;;;;;4915149;29;20521;-71
2022/01/15 07:19:51;;;;;;;9.45;6.50;;;3.50;96.70;;;;;;4919920;29;20122;-71
2022/01/15 07:22:19;;;;;;;12.32;7.22;;;3.50;96.70;;;;;;4907632;29;20885;-70
2022/01/15 07:24:47;;;;;;;10.90;6.15;;;3.50;96.70;;;;;;4900942;29;20136;-70
2022/01/15 07:27:15;;;;;;;8.60;5.80;;;3.60;96.70;;;;;;4917060;29;20043;-70
2022/01/15 07:29:43;;;;;;;11.25;5.90;;;3.60;96.70;;;;;;4917198;29;20042;-70
2022/01/15 07:32:13;;;;;;;8.10;5.45;;;3.70;96.70;;;;;;4913745;29;20110;-70
2022/01/15 07:34:41;;;;;;;9.15;5.43;;;3.80;96.70;;;;;;4902698;29;20139;-70
2022/01/15 07:37:09;;;;;;;9.68;6.00;;;3.70;96.70;;;;;;4900194;29;20451;-70
2022/01/15 07:39:37;;;;;;;10.32;5.97;;;3.60;96.70;;;;;;4914692;29;20507;-70
2022/01/15 07:42:06;;;;;;;10.00;5.93;;;3.60;96.70;;;;;;4913335;29;20469;-70
2022/01/15 07:44:35;;;;;;;9.45;6.18;;;3.70;96.70;;;;;;4918328;29;20095;-70
2022/01/15 07:47:04;;;;;;;10.82;5.70;;;3.70;96.70;;;;;;4886887;29;20059;-70
2022/01/15 07:49:34;;;;;;;9.52;6.47;;;3.70;96.70;;;;;;4916695;29;20094;-70
2022/01/15 07:52:03;;;;;;;10.32;6.13;;;3.80;96.70;;;;;;4913485;29;20044;-70
2022/01/15 07:54:31;;;;;;;10.93;6.85;;;3.70;96.70;;;;;;4886819;29;20043;-70
2022/01/15 07:57:00;;;;;;;15.93;6.85;;;3.80;96.70;;;;;;4897363;29;20532;-70
2022/01/15 07:59:31;;;;;;;10.45;6.53;;;3.90;96.70;;;;;;4916637;29;20044;-70
2022/01/15 08:01:59;;;;;;;9.15;6.60;;;3.90;96.70;;;;;;4912926;29;20072;-70
2022/01/15 08:04:27;;;;;;;11.07;6.60;;;3.90;96.70;;;;;;4915063;29;20075;-70
2022/01/15 08:06:57;;;;;;;10.05;6.63;;;4.00;96.70;;;;;;4919103;29;20127;-70
2022/01/15 08:09:25;;;;;;;10.43;7.20;;;4.00;96.70;;;;;;4902613;29;20032;-70
2022/01/15 08:11:53;;;;;;;9.32;5.78;;;4.00;96.70;;;;;;4915650;29;20050;-70
2022/01/15 08:14:21;;;;;;;10.88;6.78;;;4.10;96.70;;;;;;4914093;29;20059;-70
2022/01/15 08:16:50;;;;;;;9.48;6.30;;;4.20;96.70;;;;;;4917208;29;20058;-70
2022/01/15 08:19:18;;;;;;;9.55;6.55;;;4.20;96.70;;;;;;4915876;29;20052;-70
2022/01/15 08:21:46;;;;;;;10.32;6.70;;;4.30;96.70;;;;;;4896895;29;20067;-70
2022/01/15 08:24:16;;;;;;;10.10;6.47;;;4.30;96.70;;;;;;4915500;29;20122;-70
2022/01/15 08:26:45;;;;;;;13.93;7.80;;;4.30;96.70;;;;;;4904022;29;20088;-69
2022/01/15 08:29:13;;;;;;;8.50;6.43;;;4.40;96.70;;;;;;4914939;29;20708;-70
2022/01/15 08:31:41;;;;;;;8.60;6.10;;;4.40;96.70;;;;;;4918357;29;20048;-70
2022/01/15 08:34:10;;;;;;;8.93;6.00;;;4.30;96.70;;;;;;4896941;29;20414;-69
2022/01/15 08:36:38;;;;;;;10.23;6.82;;;4.40;96.70;;;;;;4913608;29;20032;-70
2022/01/15 08:39:08;;;;;;;10.05;6.65;;;4.50;96.70;;;;;;4920407;29;20052;-70
2022/01/15 08:41:38;;;;;;;10.77;7.15;;;4.60;96.70;;;;;;4903540;29;20048;-70
2022/01/15 08:44:06;;;;;;;10.85;6.63;;;4.60;96.70;;;;;;4901713;29;20055;-70
2022/01/15 08:46:35;;;;;;;9.05;6.30;;;4.70;96.70;;;;;;4914064;29;20062;-70
2022/01/15 08:49:03;;;;;;;8.18;6.13;;;4.70;96.70;;;;;;4915318;29;20044;-70
2022/01/15 08:51:31;;;;;;;11.27;7.00;;;4.70;96.70;;;;;;4898307;29;20673;-70
2022/01/15 08:53:59;;;;;;;8.77;6.72;;;4.70;96.70;;;;;;4904098;29;20079;-70
2022/01/15 08:56:27;;;;;;;11.90;6.55;;;4.70;96.70;;;;;;4895909;29;20048;-70
2022/01/15 08:58:57;;;;;;;11.13;6.57;;;4.80;96.70;;;;;;4913795;29;20142;-70
2022/01/15 09:01:25;;;;;;;11.35;6.80;;;4.80;96.70;;;;;;4916412;29;20299;-71
2022/01/15 09:03:55;;;;;;;11.00;6.80;;;4.90;96.70;;;;;;4913442;29;20048;-70
2022/01/15 09:06:24;;;;;;;8.93;6.40;;;4.90;96.70;;;;;;4913986;29;20055;-70
2022/01/15 09:08:52;;;;;;;10.27;7.00;;;5.00;96.70;;;;;;4893010;29;20634;-70
2022/01/15 09:11:21;;;;;;;12.10;7.93;;;5.00;96.70;;;;;;4916209;29;20582;-70
2022/01/15 09:13:50;;;;;;;10.88;7.20;;;5.20;96.70;;;;;;4884643;29;20408;-70
2022/01/15 09:16:19;;;;;;;9.27;6.78;;;5.30;96.70;;;;;;4885120;29;20044;-71
2022/01/15 09:18:47;;;;;;;13.20;7.53;;;5.40;96.70;;;;;;4885083;29;20158;-69
2022/01/15 09:21:17;;;;;;;12.43;7.72;;;5.60;96.70;;;;;;4893861;29;20052;-70
2022/01/15 09:23:47;;;;;;;14.18;7.55;;;5.70;96.70;;;;;;4898535;29;20044;-70
2022/01/15 09:26:22;;;;;;;14.40;7.43;;;5.70;96.70;;;;;;4879744;29;20059;-70
2022/01/15 09:31:52;;;;;;;11.65;8.48;;;6.00;96.70;;;;;;4860530;29;20057;-72
2022/01/15 09:34:20;;;;;;;13.45;7.43;;;6.20;96.70;;;;;;4876778;29;20342;-72
2022/01/15 09:36:48;;;;;;;13.50;8.30;;;6.30;96.70;;;;;;4893534;29;20119;-72
2022/01/15 09:39:18;;;;;;;9.88;7.68;;;6.40;96.70;;;;;;4880757;29;20041;-72
2022/01/15 09:41:48;;;;;;;11.85;8.32;;;6.60;96.70;;;;;;4892915;29;20059;-72
2022/01/15 09:44:18;;;;;;;11.75;8.30;;;6.80;96.70;;;;;;4880526;29;20052;-72
2022/01/15 09:46:47;;;;;;;9.32;7.40;;;6.90;96.70;;;;;;4881827;29;20048;-72
2022/01/15 09:49:18;;;;;;;12.52;7.97;;;6.90;96.70;;;;;;4874572;29;20542;-72
2022/01/15 09:51:48;;;;;;;11.88;8.48;;;7.00;96.70;;;;;;4893961;29;20036;-72
2022/01/15 09:54:19;;;;;;;11.02;8.20;;;7.10;96.70;;;;;;4891579;29;20067;-70
2022/01/15 09:56:49;;;;;;;10.65;7.72;;;7.20;96.70;;;;;;4897395;29;20052;-73
2022/01/15 09:59:17;;;;;;;84.93;53.47;;;7.30;96.70;;;;;;4897533;29;20040;-73
2022/01/15 10:01:47;;;;;;;34.80;23.50;;;7.40;96.70;;;;;;4884787;29;20361;-73
2022/01/15 10:04:18;;;;;;;23.00;16.23;;;7.40;96.70;;;;;;4897050;29;20044;-70
2022/01/15 10:07:08;;;;;;;21.10;14.70;;;7.50;96.70;;;;;;4897157;29;20108;-70
2022/01/15 10:09:36;;;;;;;20.50;13.45;;;7.60;96.70;;;;;;4881137;29;20132;-70
2022/01/15 10:12:07;;;;;;;13.88;9.88;;;7.80;96.70;;;;;;4896630;29;20232;-70
2022/01/15 10:14:37;;;;;;;19.02;11.40;;;7.90;96.70;;;;;;4915421;29;20067;-71
2022/01/15 10:17:20;;;;;;;14.70;11.05;;;8.00;96.70;;;;;;4903316;29;20035;-70
2022/01/15 10:19:51;;;;;;;12.48;9.27;;;8.00;96.70;;;;;;4914686;29;20044;-70
2022/01/15 10:22:20;;;;;;;15.18;10.00;;;8.10;96.70;;;;;;4922218;29;20071;-70
2022/01/15 10:24:55;;;;;;;14.25;9.30;;;8.20;96.70;;;;;;4918492;29;20510;-70
2022/01/15 10:27:27;;;;;;;14.07;9.45;;;8.30;96.70;;;;;;4918209;29;20040;-70
2022/01/15 10:29:58;;;;;;;12.85;9.82;;;8.40;96.70;;;;;;4916229;29;20039;-71
2022/01/15 10:32:31;;;;;;;11.93;9.07;;;8.50;96.70;;;;;;4902763;29;20293;-72
2022/01/15 10:35:09;;;;;;;13.68;8.70;;;8.60;96.70;;;;;;4903913;29;20152;-71
2022/01/15 10:37:48;;;;;;;9.65;7.97;;;8.60;96.70;;;;;;4916999;29;20479;-71
2022/01/15 10:40:16;;;;;;;12.13;8.50;;;8.60;96.70;;;;;;4917327;29;20391;-71
2022/01/15 10:42:51;;;;;;;11.75;8.82;;;8.70;96.70;;;;;;4904872;29;20314;-71
2022/01/15 10:45:19;;;;;;;15.43;9.00;;;8.80;96.70;;;;;;4923690;29;20044;-72
2022/01/15 10:47:53;;;;;;;10.82;8.32;;;8.90;96.70;;;;;;4904618;29;20392;-71
2022/01/15 10:50:26;;;;;;;13.40;9.27;;;9.00;96.70;;;;;;4889714;29;20105;-71
2022/01/15 10:52:57;;;;;;;12.75;9.43;;;9.10;96.70;;;;;;4922777;29;20051;-71
2022/01/15 10:55:28;;;;;;;12.10;9.25;;;9.10;96.70;;;;;;4900659;29;20430;-70
2022/01/15 10:57:59;;;;;;;13.85;9.77;;;9.20;96.70;;;;;;4909626;29;20547;-71
2022/01/15 11:00:29;;;;;;;13.95;9.15;;;9.30;96.70;;;;;;4887402;29;20339;-71
2022/01/15 11:02:59;;;;;;;15.00;10.10;;;9.40;96.70;;;;;;4905335;29;20574;-70
2022/01/15 11:05:37;;;;;;;17.90;10.50;;;9.50;96.70;;;;;;4917889;29;20064;-70
2022/01/15 11:08:12;;;;;;;19.27;11.68;;;9.60;96.70;;;;;;4916759;29;20052;-70
2022/01/15 11:10:46;;;;;;;16.35;11.20;;;9.60;96.70;;;;;;4916389;29;20102;-71
2022/01/15 11:13:15;;;;;;;15.05;10.40;;;9.70;96.70;;;;;;4902550;29;20063;-71
2022/01/15 11:15:45;;;;;;;16.38;11.00;;;9.80;96.70;;;;;;4916399;29;20129;-70
2022/01/15 11:18:17;;;;;;;17.05;11.13;;;9.80;96.70;;;;;;4903404;29;20815;-70
2022/01/15 11:20:49;;;;;;;16.52;10.93;;;10.00;96.70;;;;;;4902598;29;20188;-71
2022/01/15 11:23:20;;;;;;;17.33;11.73;;;10.10;96.70;;;;;;4919109;29;20044;-73
2022/01/15 11:25:49;;;;;;;16.17;11.00;;;10.20;96.70;;;;;;4902646;29;20051;-73
2022/01/15 11:28:24;;;;;;;14.52;11.00;;;10.20;96.70;;;;;;4915095;29;20079;-72
2022/01/15 11:31:01;;;;;;;16.52;11.05;;;10.20;96.70;;;;;;4917258;29;20103;-73
2022/01/15 11:33:32;;;;;;;15.35;10.80;;;10.30;96.70;;;;;;4921637;29;20052;-73
2022/01/15 11:36:03;;;;;;;16.58;9.90;;;10.30;96.70;;;;;;4900449;29;20051;-73
2022/01/15 11:38:46;;;;;;;14.15;10.00;;;10.40;96.70;;;;;;4920731;29;20050;-73
2022/01/15 11:41:45;;;;;;;16.08;10.05;;;10.50;96.70;;;;;;4918742;29;20051;-73
2022/01/15 11:44:16;;;;;;;13.70;9.70;;;10.60;96.70;;;;;;4825406;29;20059;-70
2022/01/15 11:46:49;;;;;;;13.52;9.85;;;10.70;96.70;;;;;;4838168;29;20466;-73
2022/01/15 11:49:29;;;;;;;12.77;9.25;;;10.80;96.70;;;;;;4824815;29;20054;-73
2022/01/15 11:52:32;;;;;;;12.98;9.95;;;10.90;96.70;;;;;;4825672;29;20158;-74
2022/01/15 11:55:18;;;;;;;15.65;9.43;;;11.00;96.70;;;;;;4827284;29;20475;-74
2022/01/15 11:57:54;;;;;;;13.90;9.90;;;11.20;96.70;;;;;;4837495;29;20060;-75
2022/01/15 12:00:27;;;;;;;14.40;9.75;;;11.30;96.70;;;;;;4833944;29;20057;-72
2022/01/15 12:03:04;;;;;;;13.45;9.48;;;11.40;96.70;;;;;;4826090;29;20733;-72
2022/01/15 12:05:35;;;;;;;13.00;9.52;;;11.40;96.70;;;;;;4842023;29;20061;-72
2022/01/15 12:08:30;;;;;;;16.25;10.63;;;11.50;96.70;;;;;;4840639;29;20129;-71
2022/01/15 12:11:06;;;;;;;12.15;8.95;;;11.70;96.70;;;;;;4838113;29;20168;-72
2022/01/15 12:13:48;;;;;;;10.18;8.63;;;11.80;96.70;;;;;;4839730;29;20571;-72
2022/01/15 12:16:28;;;;;;;13.80;9.43;;;12.00;96.70;;;;;;4819804;29;20053;-71
2022/01/15 12:18:59;;;;;;;11.85;9.27;;;12.10;96.70;;;;;;4879579;29;20433;-71
2022/01/15 12:22:03;;;;;;;13.73;9.75;;;12.20;96.70;;;;;;4911916;29;20127;-71
2022/01/15 12:24:54;;;;;;;14.20;9.30;;;12.20;96.70;;;;;;4912816;29;20123;-73
2022/01/15 12:27:28;;;;;;;12.70;8.85;;;12.30;96.70;;;;;;4899438;29;20055;-72
2022/01/15 12:30:06;;;;;;;13.88;8.63;;;12.40;96.70;;;;;;4917035;29;20119;-72
2022/01/15 12:32:40;;;;;;;12.88;8.98;;;12.50;96.70;;;;;;4911700;29;20538;-72
2022/01/15 12:35:14;;;;;;;10.95;8.48;;;12.70;96.70;;;;;;4910498;29;20047;-74
2022/01/15 12:37:58;;;;;;;12.32;7.88;;;12.80;96.70;;;;;;4900458;29;20051;-71
2022/01/15 12:40:31;;;;;;;11.43;8.00;;;12.80;96.70;;;;;;4912899;29;20123;-74
2022/01/15 12:43:01;;;;;;;11.30;8.13;;;12.90;96.70;;;;;;4913004;29;20064;-71
2022/01/15 12:45:31;;;;;;;10.63;8.70;;;13.00;96.70;;;;;;4912337;29;20139;-71
2022/01/15 12:47:59;;;;;;;11.00;8.77;;;13.10;96.70;;;;;;4917567;29;20044;-74
2022/01/15 12:50:28;;;;;;;9.90;8.60;;;13.10;96.70;;;;;;4882239;29;20043;-73
2022/01/15 12:53:01;;;;;;;11.93;8.30;;;13.20;96.70;;;;;;4913434;29;20090;-72
2022/01/15 12:55:32;;;;;;;11.43;9.40;;;13.30;96.70;;;;;;4913504;29;20060;-71
2022/01/15 12:58:02;;;;;;;15.40;10.07;;;13.40;96.70;;;;;;4898294;29;20036;-71
2022/01/15 13:00:32;;;;;;;12.80;9.82;;;13.40;96.70;;;;;;4913816;29;20132;-71
2022/01/15 13:03:06;;;;;;;14.55;9.65;;;13.50;96.70;;;;;;4912667;29;20046;-71
2022/01/15 13:05:37;;;;;;;13.60;9.65;;;13.50;96.70;;;;;;4915519;29;20044;-71
2022/01/15 13:08:07;;;;;;;12.55;9.00;;;13.50;96.70;;;;;;4911444;29;20036;-71
2022/01/15 13:10:47;;;;;;;12.27;8.63;;;13.60;96.70;;;;;;4897266;29;20193;-71
2022/01/15 13:13:30;;;;;;;11.98;9.52;;;13.60;96.70;;;;;;4886109;29;20194;-71
2022/01/15 13:16:01;;;;;;;17.77;13.00;;;13.70;96.70;;;;;;4878322;29;20056;-71
2022/01/15 13:18:31;;;;;;;17.25;11.90;;;13.80;96.70;;;;;;4866829;29;20060;-71
2022/01/15 13:21:00;;;;;;;15.50;10.90;;;13.70;96.70;;;;;;4880131;29;20495;-71
2022/01/15 13:23:36;;;;;;;13.60;9.35;;;13.70;96.70;;;;;;4877626;29;20726;-71
2022/01/15 13:26:07;;;;;;;13.43;9.77;;;13.70;96.70;;;;;;4902300;29;20589;-71
2022/01/15 13:28:38;;;;;;;13.15;10.23;;;13.70;96.70;;;;;;4895917;29;20052;-71